createdAt,value
2023-02-09T00:01:10.696Z,76.01
2023-02-09T00:03:38.139Z,76.37
2023-02-09T00:06:06.506Z,77.00
2023-02-09T00:08:35.192Z,77.72
2023-02-09T00:11:05.911Z,77.19
2023-02-09T00:13:34.568Z,74.79
2023-02-09T00:16:02.598Z,74.70
2023-02-09T00:18:31.124Z,75.16
2023-02-09T00:20:59.032Z,75.83
2023-02-09T00:23:27.165Z,76.29
2023-02-09T00:25:54.347Z,77.74
2023-02-09T00:28:21.738Z,78.12
2023-02-09T00:30:49.873Z,73.23
2023-02-09T00:33:16.650Z,73.75
2023-02-09T00:35:44.152Z,75.23
2023-02-09T00:38:12.462Z,75.53
2023-02-09T00:40:40.118Z,71.93
2023-02-09T00:43:08.023Z,72.86
2023-02-09T00:45:35.242Z,72.74
2023-02-09T00:48:03.691Z,75.15
2023-02-09T00:50:30.637Z,76.09
2023-02-09T00:52:57.416Z,76.54
2023-02-09T00:55:24.233Z,76.01
2023-02-09T00:57:50.991Z,74.61
2023-02-09T01:00:18.013Z,74.31
2023-02-09T01:02:44.783Z,76.09
2023-02-09T01:05:13.004Z,75.43
2023-02-09T01:07:39.765Z,76.79
2023-02-09T01:10:07.468Z,76.09
2023-02-09T01:12:34.350Z,76.40
2023-02-09T01:15:01.202Z,77.87
2023-02-09T01:17:28.274Z,78.26
2023-02-09T01:19:55.700Z,77.99
2023-02-09T01:22:23.882Z,77.19
2023-02-09T01:24:50.778Z,77.45
2023-02-09T01:27:17.973Z,79.49
2023-02-09T01:29:44.977Z,79.80
2023-02-09T01:32:12.005Z,80.66
2023-02-09T01:34:38.892Z,80.47
2023-02-09T01:37:05.821Z,80.88
2023-02-09T01:39:34.012Z,81.53
2023-02-09T01:42:00.934Z,82.28
2023-02-09T01:45:05.866Z,81.21
2023-02-09T01:47:36.317Z,82.08
2023-02-09T01:50:03.589Z,80.71
2023-02-09T01:52:30.614Z,80.05
2023-02-09T01:55:01.202Z,79.83
2023-02-09T01:57:32.838Z,81.67
2023-02-09T02:00:04.973Z,82.80
2023-02-09T02:02:32.119Z,82.38
2023-02-09T02:04:59.541Z,81.90
2023-02-09T02:07:32.294Z,82.93
2023-02-09T02:10:02.224Z,81.99
2023-02-09T02:12:29.620Z,82.78
2023-02-09T02:14:56.425Z,82.76
2023-02-09T02:17:36.616Z,82.65
2023-02-09T02:20:33.130Z,82.51
2023-02-09T02:23:14.281Z,83.06
2023-02-09T02:26:20.472Z,83.25
2023-02-09T02:29:16.247Z,81.11
2023-02-09T02:31:58.450Z,82.07
2023-02-09T02:34:38.364Z,82.73
2023-02-09T02:37:15.996Z,84.01
2023-02-09T02:39:54.226Z,84.64
2023-02-09T02:42:25.088Z,83.93
2023-02-09T02:45:01.555Z,84.33
2023-02-09T02:47:33.138Z,85.10
2023-02-09T02:50:06.073Z,84.40
2023-02-09T02:52:32.833Z,84.01
2023-02-09T02:55:05.015Z,83.90
2023-02-09T02:57:36.216Z,84.06
2023-02-09T03:00:08.543Z,83.25
2023-02-09T03:02:40.978Z,84.06
2023-02-09T03:05:09.821Z,84.62
2023-02-09T03:07:36.548Z,84.11
2023-02-09T03:10:21.855Z,83.17
2023-02-09T03:12:58.120Z,82.77
2023-02-09T03:15:32.504Z,82.23
2023-02-09T03:18:10.617Z,83.92
2023-02-09T03:20:43.681Z,83.20
2023-02-09T03:23:16.455Z,83.31
2023-02-09T03:25:48.545Z,83.97
2023-02-09T03:28:21.917Z,81.26
2023-02-09T03:30:49.886Z,82.92
2023-02-09T03:33:20.349Z,84.01
2023-02-09T03:35:50.243Z,84.35
2023-02-09T03:38:17.596Z,84.54
2023-02-09T03:40:45.215Z,84.54
2023-02-09T03:43:12.176Z,84.38
2023-02-09T03:45:39.103Z,81.13
2023-02-09T03:48:06.066Z,82.03
2023-02-09T03:50:35.512Z,81.31
2023-02-09T03:53:03.441Z,81.43
2023-02-09T03:55:30.181Z,79.05
2023-02-09T03:57:56.935Z,77.54
2023-02-09T04:00:23.759Z,77.11
2023-02-09T04:02:50.549Z,79.57
2023-02-09T04:05:17.500Z,77.47
2023-02-09T04:07:45.796Z,75.67
2023-02-09T04:10:12.538Z,76.30
2023-02-09T04:12:39.242Z,76.52
2023-02-09T04:15:06.745Z,76.54
2023-02-09T04:17:33.605Z,78.22
2023-02-09T04:20:00.347Z,77.36
2023-02-09T04:22:27.129Z,76.05
2023-02-09T04:24:55.335Z,74.06
2023-02-09T04:27:22.066Z,75.14
2023-02-09T04:29:48.880Z,75.62
2023-02-09T04:32:15.594Z,76.89
2023-02-09T04:34:42.307Z,79.17
2023-02-09T04:37:09.033Z,78.42
2023-02-09T04:39:35.810Z,75.49
2023-02-09T04:42:03.955Z,74.71
2023-02-09T04:44:30.691Z,77.96
2023-02-09T04:46:57.579Z,73.95
2023-02-09T04:49:24.277Z,75.36
2023-02-09T04:51:51.040Z,75.32
2023-02-09T04:54:17.809Z,75.90
2023-02-09T04:56:44.541Z,75.56
2023-02-09T04:59:12.727Z,75.37
2023-02-09T05:01:39.448Z,75.24
2023-02-09T05:04:06.258Z,75.73
2023-02-09T05:06:33.027Z,74.46
2023-02-09T05:08:59.766Z,74.78
2023-02-09T05:11:26.507Z,77.29
2023-02-09T05:13:53.362Z,76.64
2023-02-09T05:16:21.645Z,75.70
2023-02-09T05:18:48.449Z,76.98
2023-02-09T05:21:15.163Z,77.00
2023-02-09T05:23:42.062Z,78.20
2023-02-09T05:26:09.328Z,77.17
2023-02-09T05:28:36.523Z,77.94
2023-02-09T05:31:03.458Z,78.27
2023-02-09T05:33:31.628Z,76.60
2023-02-09T05:35:58.364Z,76.85
2023-02-09T05:38:25.169Z,76.69
2023-02-09T05:40:52.073Z,76.90
2023-02-09T05:43:18.836Z,77.73
2023-02-09T05:45:46.128Z,78.10
2023-02-09T05:48:12.959Z,79.30
2023-02-09T05:50:41.159Z,79.45
2023-02-09T05:53:08.414Z,78.51
2023-02-09T05:55:35.303Z,78.43
2023-02-09T05:58:02.056Z,78.38
2023-02-09T06:00:28.774Z,78.69
2023-02-09T06:02:55.646Z,79.25
2023-02-09T06:05:22.844Z,78.87
2023-02-09T06:07:51.172Z,78.79
2023-02-09T06:10:18.299Z,78.88
2023-02-09T06:12:45.394Z,79.19
2023-02-09T06:15:12.868Z,78.72
2023-02-09T06:17:39.655Z,78.57
2023-02-09T06:20:07.329Z,81.08
2023-02-09T06:22:34.338Z,80.27
2023-02-09T06:25:03.677Z,78.92
2023-02-09T06:27:30.497Z,78.41
2023-02-09T06:29:57.223Z,78.81
2023-02-09T06:32:23.982Z,77.87
2023-02-09T06:34:51.061Z,78.62
2023-02-09T06:37:17.866Z,79.56
2023-02-09T06:39:44.606Z,79.41
2023-02-09T06:42:12.785Z,78.48
2023-02-09T06:44:39.664Z,79.75
2023-02-09T06:47:06.430Z,79.07
2023-02-09T06:49:33.216Z,78.30
2023-02-09T06:52:00.156Z,78.73
2023-02-09T06:54:27.158Z,79.34
2023-02-09T06:56:54.173Z,78.91
2023-02-09T06:59:22.482Z,79.03
2023-02-09T07:01:51.249Z,79.75
2023-02-09T07:04:19.508Z,79.41
2023-02-09T07:06:46.229Z,79.38
2023-02-09T07:09:13.079Z,79.95
2023-02-09T07:11:39.917Z,78.65
2023-02-09T07:14:06.645Z,78.99
2023-02-09T07:16:34.764Z,80.52
2023-02-09T07:19:01.558Z,81.01
2023-02-09T07:21:29.697Z,82.39
2023-02-09T07:23:59.167Z,81.29
2023-02-09T07:26:26.029Z,80.65
2023-02-09T07:28:54.270Z,80.92
2023-02-09T07:31:21.758Z,81.63
2023-02-09T07:33:50.048Z,83.06
2023-02-09T07:36:17.989Z,83.15
2023-02-09T07:38:45.561Z,80.70
2023-02-09T07:41:15.615Z,79.09
2023-02-09T07:43:42.739Z,78.42
2023-02-09T07:46:11.002Z,78.29
2023-02-09T07:48:38.011Z,78.74
2023-02-09T07:51:13.132Z,78.04
2023-02-09T07:53:40.077Z,78.00
2023-02-09T07:56:07.557Z,76.41
2023-02-09T07:58:34.636Z,76.93
2023-02-09T08:01:04.905Z,74.47
2023-02-09T08:03:34.281Z,74.40
2023-02-09T08:06:04.216Z,73.05
2023-02-09T08:08:32.331Z,71.47
2023-02-09T08:11:01.186Z,69.57
2023-02-09T08:13:32.374Z,68.37
2023-02-09T08:16:02.774Z,68.11
2023-02-09T08:18:34.432Z,66.88
2023-02-09T08:21:01.370Z,65.18
2023-02-09T08:23:30.889Z,63.51
2023-02-09T08:26:02.069Z,62.74
2023-02-09T08:28:42.771Z,62.18
2023-02-09T08:31:10.560Z,60.38
2023-02-09T08:33:37.668Z,58.24
2023-02-09T08:36:05.249Z,57.31
2023-02-09T08:38:32.008Z,56.79
2023-02-09T08:41:02.156Z,57.63
2023-02-09T08:43:28.951Z,55.23
2023-02-09T08:45:55.776Z,56.24
2023-02-09T08:48:22.545Z,55.38
2023-02-09T08:50:49.331Z,56.29
2023-02-09T08:53:16.462Z,54.74
2023-02-09T08:55:43.272Z,54.97
2023-02-09T08:58:11.776Z,54.63
2023-02-09T09:00:38.517Z,53.40
2023-02-09T09:03:05.721Z,52.49
2023-02-09T09:05:34.295Z,53.76
2023-02-09T09:08:01.012Z,52.47
2023-02-09T09:10:27.864Z,53.52
2023-02-09T09:12:54.604Z,53.62
2023-02-09T09:15:22.712Z,52.37
2023-02-09T09:17:49.485Z,52.09
2023-02-09T09:20:16.535Z,51.63
2023-02-09T09:22:43.649Z,52.19
2023-02-09T09:25:10.484Z,52.42
2023-02-09T09:27:37.452Z,52.24
2023-02-09T09:30:05.325Z,51.60
2023-02-09T09:32:33.634Z,51.74
2023-02-09T09:35:00.497Z,51.58
2023-02-09T09:37:27.336Z,50.55
2023-02-09T09:39:54.124Z,50.02
2023-02-09T09:42:25.087Z,49.63
2023-02-09T09:44:52.808Z,49.89
2023-02-09T09:47:24.877Z,50.36
2023-02-09T09:49:53.046Z,49.49
2023-02-09T09:52:32.074Z,49.73
2023-02-09T09:55:00.668Z,48.99
2023-02-09T09:57:29.710Z,49.47
2023-02-09T09:59:57.566Z,48.41
2023-02-09T10:02:29.629Z,49.46
2023-02-09T10:05:02.859Z,48.65
2023-02-09T10:07:32.042Z,48.58
2023-02-09T10:10:04.235Z,48.84
2023-02-09T10:12:36.192Z,48.69
2023-02-09T10:15:25.651Z,47.75
2023-02-09T10:17:52.501Z,48.44
2023-02-09T10:20:40.361Z,48.55
2023-02-09T10:23:15.287Z,48.44
2023-02-09T10:25:52.729Z,47.76
2023-02-09T10:28:21.560Z,47.36
2023-02-09T10:30:51.868Z,46.79
2023-02-09T10:33:19.040Z,47.92
2023-02-09T10:35:50.849Z,49.15
2023-02-09T10:38:20.025Z,49.02
2023-02-09T10:40:47.245Z,47.38
2023-02-09T10:43:23.505Z,48.02
2023-02-09T10:45:55.530Z,48.21
2023-02-09T10:48:24.256Z,48.70
2023-02-09T10:50:54.914Z,47.88
2023-02-09T10:53:25.866Z,47.81
2023-02-09T10:56:00.949Z,47.87
2023-02-09T10:58:30.032Z,48.00
2023-02-09T11:01:06.503Z,47.88
2023-02-09T11:03:33.704Z,46.12
2023-02-09T11:06:09.829Z,47.30
2023-02-09T11:08:43.663Z,46.78
2023-02-09T11:11:23.114Z,47.55
2023-02-09T11:13:49.859Z,46.83
2023-02-09T11:16:25.873Z,47.76
2023-02-09T11:18:59.177Z,46.38
2023-02-09T11:21:39.277Z,45.31
2023-02-09T11:24:12.056Z,46.57
2023-02-09T11:26:46.990Z,46.20
2023-02-09T11:29:24.294Z,47.11
2023-02-09T11:32:11.890Z,45.32
2023-02-09T11:35:04.158Z,46.10
2023-02-09T11:37:41.557Z,46.22
2023-02-09T11:40:21.910Z,46.19
2023-02-09T11:42:55.561Z,45.85
2023-02-09T11:45:29.369Z,45.74
2023-02-09T11:48:03.612Z,44.51
2023-02-09T11:50:35.869Z,45.08
2023-02-09T11:53:10.446Z,44.58
2023-02-09T11:55:42.745Z,45.17
2023-02-09T11:58:24.154Z,45.27
2023-02-09T12:01:13.364Z,44.92
2023-02-09T12:03:49.908Z,45.80
2023-02-09T12:06:17.664Z,45.23
2023-02-09T12:08:58.702Z,44.39
2023-02-09T12:11:41.802Z,45.42
2023-02-09T12:14:27.855Z,43.94
2023-02-09T12:17:00.360Z,45.70
2023-02-09T12:19:34.584Z,44.85
2023-02-09T12:22:16.214Z,45.51
2023-02-09T12:25:12.917Z,46.11
2023-02-09T12:27:41.072Z,46.89
2023-02-09T12:30:41.085Z,46.16
2023-02-09T12:33:17.398Z,46.07
2023-02-09T12:35:57.217Z,45.78
2023-02-09T12:38:24.312Z,45.51
2023-02-09T12:41:04.081Z,45.71
2023-02-09T12:43:31.819Z,46.97
2023-02-09T12:46:43.672Z,45.84
2023-02-09T12:49:19.545Z,47.50
2023-02-09T12:52:13.161Z,47.21
2023-02-09T12:54:44.108Z,47.03
2023-02-09T12:57:53.644Z,46.41
2023-02-09T13:00:51.318Z,47.23
2023-02-09T13:03:23.234Z,46.08
2023-02-09T13:05:50.257Z,45.95
2023-02-09T13:08:29.655Z,47.38
2023-02-09T13:11:00.582Z,47.72
2023-02-09T13:13:35.297Z,46.91
2023-02-09T13:16:33.251Z,45.92
2023-02-09T13:19:11.592Z,46.65
2023-02-09T13:21:46.848Z,47.87
2023-02-09T13:24:16.226Z,47.32
2023-02-09T13:26:50.189Z,47.16
2023-02-09T13:29:21.206Z,47.15
2023-02-09T13:31:59.293Z,47.28
2023-02-09T13:34:34.401Z,47.48
2023-02-09T13:37:12.793Z,47.59
2023-02-09T13:39:39.937Z,48.40
2023-02-09T13:42:22.142Z,49.06
2023-02-09T13:44:52.219Z,47.60
2023-02-09T13:47:21.092Z,47.63
2023-02-09T13:49:59.522Z,48.20
2023-02-09T13:52:31.724Z,48.04
2023-02-09T13:55:10.828Z,48.53
2023-02-09T13:57:40.603Z,47.56
2023-02-09T14:00:15.207Z,48.09
2023-02-09T14:02:47.968Z,48.35
2023-02-09T14:05:26.183Z,47.32
2023-02-09T14:07:53.668Z,47.34
2023-02-09T14:10:21.244Z,47.00
2023-02-09T14:12:53.309Z,47.04
2023-02-09T14:15:24.116Z,47.95
2023-02-09T14:17:53.981Z,48.21
2023-02-09T14:20:23.742Z,48.42
2023-02-09T14:22:56.833Z,49.05
2023-02-09T14:25:24.813Z,48.28
2023-02-09T14:27:51.980Z,48.90
2023-02-09T14:30:21.664Z,49.32
2023-02-09T14:32:54.023Z,48.91
2023-02-09T14:35:22.353Z,48.96
2023-02-09T14:37:50.802Z,48.71
2023-02-09T14:40:27.870Z,48.15
2023-02-09T14:43:02.967Z,48.97
2023-02-09T14:45:38.448Z,48.61
2023-02-09T14:48:22.531Z,48.32
2023-02-09T14:50:53.264Z,48.51
2023-02-09T14:53:21.437Z,47.89
2023-02-09T14:55:48.798Z,49.46
2023-02-09T14:58:23.200Z,49.81
2023-02-09T15:00:51.060Z,50.47
2023-02-09T15:03:17.832Z,50.63
2023-02-09T15:05:47.251Z,50.82
2023-02-09T15:08:16.872Z,51.54
2023-02-09T15:10:46.708Z,51.72
2023-02-09T15:13:15.394Z,52.24
2023-02-09T15:15:42.885Z,52.95
2023-02-09T15:18:17.651Z,53.56
2023-02-09T15:20:45.862Z,53.47
2023-02-09T15:23:12.749Z,53.48
2023-02-09T15:25:40.712Z,55.65
2023-02-09T15:28:14.401Z,56.15
2023-02-09T15:30:41.231Z,55.83
2023-02-09T15:33:10.763Z,55.72
2023-02-09T15:35:38.769Z,55.74
2023-02-09T15:38:10.129Z,54.88
2023-02-09T15:40:40.711Z,54.86
2023-02-09T15:43:16.203Z,55.14
2023-02-09T15:45:45.300Z,55.25
2023-02-09T15:48:13.047Z,56.08
2023-02-09T15:50:42.244Z,56.31
2023-02-09T15:53:12.891Z,57.87
2023-02-09T15:55:40.186Z,57.58
2023-02-09T15:58:12.854Z,57.72
2023-02-09T16:00:39.661Z,58.28
2023-02-09T16:03:13.735Z,58.24
2023-02-09T16:05:40.431Z,58.10
2023-02-09T16:08:16.429Z,58.55
2023-02-09T16:10:43.297Z,59.53
2023-02-09T16:13:11.638Z,60.12
2023-02-09T16:15:38.359Z,61.86
2023-02-09T16:18:05.163Z,62.80
2023-02-09T16:20:32.002Z,63.59
2023-02-09T16:23:04.037Z,62.79
2023-02-09T16:25:37.015Z,62.04
2023-02-09T16:28:03.985Z,65.70
2023-02-09T16:30:31.814Z,65.52
2023-02-09T16:32:58.631Z,68.06
2023-02-09T16:35:25.400Z,67.70
2023-02-09T16:37:53.398Z,69.57
2023-02-09T16:40:26.832Z,67.85
2023-02-09T16:42:56.491Z,68.23
2023-02-09T16:45:24.108Z,68.05
2023-02-09T16:47:53.069Z,67.88
2023-02-09T16:50:25.400Z,70.64
2023-02-09T16:52:54.540Z,71.31
2023-02-09T16:55:25.219Z,72.02
2023-02-09T16:57:52.297Z,71.02
2023-02-09T17:00:21.726Z,71.51
2023-02-09T17:02:52.045Z,72.57
2023-02-09T17:05:21.606Z,71.01
2023-02-09T17:07:55.035Z,71.22
2023-02-09T17:10:25.069Z,71.19
2023-02-09T17:12:53.629Z,73.44
2023-02-09T17:15:30.529Z,72.33
2023-02-09T17:18:02.380Z,72.41
2023-02-09T17:20:35.134Z,73.50
2023-02-09T17:23:01.877Z,73.01
2023-02-09T17:25:28.729Z,72.83
2023-02-09T17:27:55.554Z,74.31
2023-02-09T17:30:23.705Z,75.14
2023-02-09T17:32:58.307Z,73.73
2023-02-09T17:35:48.839Z,74.04
2023-02-09T17:38:20.513Z,74.01
2023-02-09T17:40:47.283Z,74.13
2023-02-09T17:43:14.004Z,74.30
2023-02-09T17:45:42.340Z,73.67
2023-02-09T17:48:09.251Z,73.71
2023-02-09T17:50:35.988Z,74.10
2023-02-09T17:53:02.828Z,74.27
2023-02-09T17:55:29.873Z,74.98
2023-02-09T17:57:57.993Z,73.44
2023-02-09T18:00:25.916Z,73.98
2023-02-09T18:02:54.347Z,74.76
2023-02-09T18:05:23.919Z,74.12
2023-02-09T18:07:51.383Z,74.65
2023-02-09T18:10:19.790Z,75.13
2023-02-09T18:12:47.337Z,74.73
2023-02-09T18:15:22.053Z,75.06
2023-02-09T18:17:49.741Z,76.03
2023-02-09T18:20:19.877Z,74.15
2023-02-09T18:22:46.666Z,74.01
2023-02-09T18:25:19.369Z,72.97
2023-02-09T18:27:46.356Z,73.54
2023-02-09T18:30:14.163Z,74.14
2023-02-09T18:32:41.090Z,74.02
2023-02-09T18:35:08.284Z,75.75
2023-02-09T18:37:36.411Z,74.70
2023-02-09T18:40:03.646Z,75.89
2023-02-09T18:42:30.499Z,73.67
2023-02-09T18:44:57.232Z,73.54
2023-02-09T18:47:24.055Z,73.99
2023-02-09T18:49:50.761Z,74.58
2023-02-09T18:52:17.527Z,74.64
2023-02-09T18:54:45.641Z,73.93
2023-02-09T18:57:13.104Z,75.99
2023-02-09T18:59:39.901Z,77.44
2023-02-09T19:02:06.629Z,78.25
2023-02-09T19:04:33.368Z,76.54
2023-02-09T19:07:00.086Z,75.87
2023-02-09T19:09:26.888Z,78.43
2023-02-09T19:11:54.991Z,77.04
2023-02-09T19:14:21.880Z,75.65
2023-02-09T19:16:48.707Z,75.94
2023-02-09T19:19:15.470Z,75.50
2023-02-09T19:21:42.188Z,75.78
2023-02-09T19:24:08.942Z,76.47
2023-02-09T19:26:35.672Z,74.75
2023-02-09T19:29:04.051Z,79.14
2023-02-09T19:31:30.951Z,79.65
2023-02-09T19:33:57.821Z,79.35
2023-02-09T19:36:25.035Z,79.59
2023-02-09T19:38:51.878Z,77.05
2023-02-09T19:41:18.669Z,77.34
2023-02-09T19:43:45.525Z,76.31
2023-02-09T19:46:13.710Z,74.97
2023-02-09T19:48:40.787Z,75.06
2023-02-09T19:51:08.128Z,75.61
2023-02-09T19:53:34.950Z,76.39
2023-02-09T19:56:01.786Z,76.24
2023-02-09T19:58:29.795Z,77.15
2023-02-09T20:00:57.039Z,76.42
2023-02-09T20:03:25.342Z,77.00
2023-02-09T20:05:52.097Z,77.42
2023-02-09T20:08:19.914Z,77.25
2023-02-09T20:10:47.390Z,76.81
2023-02-09T20:13:15.295Z,75.79
2023-02-09T20:15:43.516Z,77.18
2023-02-09T20:18:12.015Z,76.52
2023-02-09T20:20:42.034Z,75.50
2023-02-09T20:23:09.561Z,75.71
2023-02-09T20:25:36.444Z,76.25
2023-02-09T20:28:03.250Z,76.12
2023-02-09T20:30:31.231Z,76.59
2023-02-09T20:32:58.057Z,76.89
2023-02-09T20:35:24.835Z,74.92
2023-02-09T20:37:52.987Z,77.90
2023-02-09T20:40:19.826Z,75.83
2023-02-09T20:42:46.679Z,75.97
2023-02-09T20:45:14.507Z,76.08
2023-02-09T20:47:41.330Z,77.30
2023-02-09T20:50:08.291Z,78.64
2023-02-09T20:52:35.056Z,76.12
2023-02-09T20:55:03.306Z,76.55
2023-02-09T20:57:30.054Z,78.12
2023-02-09T20:59:56.876Z,77.53
2023-02-09T21:02:23.719Z,79.20
2023-02-09T21:04:50.810Z,78.65
2023-02-09T21:07:17.586Z,77.91
2023-02-09T21:09:44.349Z,79.47
2023-02-09T21:12:13.324Z,78.00
2023-02-09T21:14:42.844Z,78.13
2023-02-09T21:17:09.725Z,76.45
2023-02-09T21:19:36.463Z,79.03
2023-02-09T21:22:03.250Z,77.13
2023-02-09T21:24:30.121Z,77.65
2023-02-09T21:26:56.898Z,78.98
2023-02-09T21:29:25.088Z,78.28
2023-02-09T21:31:51.853Z,77.89
2023-02-09T21:34:18.676Z,77.71
2023-02-09T21:36:45.528Z,77.89
2023-02-09T21:39:13.150Z,78.66
2023-02-09T21:41:39.983Z,78.55
2023-02-09T21:44:08.365Z,79.01
2023-02-09T21:46:36.557Z,78.46
2023-02-09T21:49:03.492Z,78.61
2023-02-09T21:51:30.301Z,78.70
2023-02-09T21:53:57.425Z,77.78
2023-02-09T21:56:24.194Z,78.61
2023-02-09T21:58:50.910Z,76.21
2023-02-09T22:01:17.932Z,77.02
2023-02-09T22:03:48.096Z,76.48
2023-02-09T22:06:14.943Z,76.44
2023-02-09T22:08:41.736Z,78.44
2023-02-09T22:11:08.549Z,78.63
2023-02-09T22:13:35.670Z,78.44
2023-02-09T22:16:06.826Z,77.81
2023-02-09T22:18:34.109Z,77.64
2023-02-09T22:21:06.013Z,77.81
2023-02-09T22:23:32.898Z,77.90
2023-02-09T22:26:00.333Z,77.01
2023-02-09T22:28:27.310Z,78.18
2023-02-09T22:30:54.310Z,77.12
2023-02-09T22:33:21.666Z,78.69
2023-02-09T22:35:49.145Z,77.81
2023-02-09T22:38:17.514Z,78.72
2023-02-09T22:40:44.220Z,78.17
2023-02-09T22:43:10.985Z,78.24
2023-02-09T22:45:37.716Z,79.75
2023-02-09T22:48:04.836Z,80.17
2023-02-09T22:50:31.650Z,78.41
2023-02-09T22:52:58.498Z,77.57
2023-02-09T22:55:26.703Z,77.68
2023-02-09T22:57:53.421Z,77.16
2023-02-09T23:00:20.368Z,76.92
2023-02-09T23:02:47.090Z,76.11
2023-02-09T23:05:13.810Z,77.17
2023-02-09T23:07:40.557Z,77.13
2023-02-09T23:10:07.412Z,77.61
2023-02-09T23:12:35.541Z,77.75
2023-02-09T23:15:02.309Z,78.90
2023-02-09T23:17:29.038Z,80.30
2023-02-09T23:19:55.813Z,81.16
2023-02-09T23:22:22.555Z,80.27
2023-02-09T23:24:49.255Z,80.01
2023-02-09T23:27:16.086Z,79.50
2023-02-09T23:29:44.300Z,78.78
2023-02-09T23:32:11.047Z,79.81
2023-02-09T23:34:37.781Z,79.43
2023-02-09T23:37:13.302Z,79.71
2023-02-09T23:39:45.689Z,78.79
2023-02-09T23:42:12.430Z,78.10
2023-02-09T23:44:39.149Z,77.94
2023-02-09T23:47:07.318Z,78.67
2023-02-09T23:49:34.089Z,78.74
2023-02-09T23:52:00.853Z,80.07
2023-02-09T23:54:27.715Z,78.87
2023-02-09T23:56:54.411Z,80.64
2023-02-09T23:59:21.367Z,79.57
